sensor_id;sensor_type;location;lat;lon;timestamp;pressure;altitude;pressure_sealevel;temperature;humidity
50652;BME280;61429;52.086;5.240;2022-09-09T00:00:12;100630.0;;;17.87;78.44
50652;BME280;61429;52.086;5.240;2022-09-09T00:01:52;100631.0;;;17.75;78.37
50652;BME280;61429;52.086;5.240;2022-09-09T00:03:40;100630.0;;;17.75;78.58
50652;BME280;61429;52.086;5.240;2022-09-09T00:05:24;100627.0;;;17.63;78.89
50652;BME280;61429;52.086;5.240;2022-09-09T00:07:10;100626.0;;;17.66;78.98
50652;BME280;61429;52.086;5.240;2022-09-09T00:10:40;100627.0;;;17.7;78.91
50652;BME280;61429;52.086;5.240;2022-09-09T00:12:24;100628.0;;;17.75;79.02
50652;BME280;61429;52.086;5.240;2022-09-09T00:14:18;100625.0;;;17.68;79.11
50652;BME280;61429;52.086;5.240;2022-09-09T00:16:02;100625.0;;;17.7;79.12
50652;BME280;61429;52.086;5.240;2022-09-09T00:17:45;100627.0;;;17.62;79.05
50652;BME280;61429;52.086;5.240;2022-09-09T00:21:16;100622.0;;;17.61;79.2
50652;BME280;61429;52.086;5.240;2022-09-09T00:22:59;100618.0;;;17.71;79.16
50652;BME280;61429;52.086;5.240;2022-09-09T00:24:43;100616.0;;;17.66;79.19
50652;BME280;61429;52.086;5.240;2022-09-09T00:26:24;100618.0;;;17.75;78.8
50652;BME280;61429;52.086;5.240;2022-09-09T00:28:13;100613.0;;;17.66;78.91
50652;BME280;61429;52.086;5.240;2022-09-09T00:31:37;100614.0;;;17.52;79.08
50652;BME280;61429;52.086;5.240;2022-09-09T00:33:17;100615.0;;;17.48;79.63
50652;BME280;61429;52.086;5.240;2022-09-09T00:34:57;100612.0;;;17.5;79.34
50652;BME280;61429;52.086;5.240;2022-09-09T00:36:38;100609.0;;;17.45;79.47
50652;BME280;61429;52.086;5.240;2022-09-09T00:39:59;100607.0;;;17.43;79.52
50652;BME280;61429;52.086;5.240;2022-09-09T00:41:50;100611.0;;;17.41;79.3
50652;BME280;61429;52.086;5.240;2022-09-09T00:43:40;100609.0;;;17.3;79.59
50652;BME280;61429;52.086;5.240;2022-09-09T00:45:41;100608.0;;;17.45;79.24
50652;BME280;61429;52.086;5.240;2022-09-09T00:47:39;100613.0;;;17.32;79.62
50652;BME280;61429;52.086;5.240;2022-09-09T00:49:38;100613.0;;;17.32;79.38
50652;BME280;61429;52.086;5.240;2022-09-09T00:51:30;100617.0;;;17.27;79.75
50652;BME280;61429;52.086;5.240;2022-09-09T00:53:22;100616.0;;;17.18;80.11
50652;BME280;61429;52.086;5.240;2022-09-09T00:57:03;100620.0;;;17.18;79.87
50652;BME280;61429;52.086;5.240;2022-09-09T00:58:43;100621.0;;;17.21;79.77
50652;BME280;61429;52.086;5.240;2022-09-09T01:00:29;100622.0;;;17.18;79.7
50652;BME280;61429;52.086;5.240;2022-09-09T01:02:16;100627.0;;;17.2;79.84
50652;BME280;61429;52.086;5.240;2022-09-09T01:03:55;100622.0;;;17.11;79.86
50652;BME280;61429;52.086;5.240;2022-09-09T01:07:17;100626.0;;;17.14;80.12
50652;BME280;61429;52.086;5.240;2022-09-09T01:09:08;100621.0;;;17.18;79.91
50652;BME280;61429;52.086;5.240;2022-09-09T01:10:58;100616.0;;;17.0;80.23
50652;BME280;61429;52.086;5.240;2022-09-09T01:12:40;100616.0;;;17.06;80.12
50652;BME280;61429;52.086;5.240;2022-09-09T01:14:29;100615.0;;;17.14;79.36
50652;BME280;61429;52.086;5.240;2022-09-09T01:16:10;100614.0;;;16.95;80.02
50652;BME280;61429;52.086;5.240;2022-09-09T01:19:43;100617.0;;;17.06;79.72
50652;BME280;61429;52.086;5.240;2022-09-09T01:21:33;100612.0;;;16.98;80.05
50652;BME280;61429;52.086;5.240;2022-09-09T01:23:25;100607.0;;;16.93;80.17
50652;BME280;61429;52.086;5.240;2022-09-09T01:25:20;100606.0;;;17.06;79.52
50652;BME280;61429;52.086;5.240;2022-09-09T01:27:53;100606.0;;;17.06;79.64
50652;BME280;61429;52.086;5.240;2022-09-09T01:29:32;100605.0;;;17.05;79.56
50652;BME280;61429;52.086;5.240;2022-09-09T01:31:11;100607.0;;;16.98;80.16
50652;BME280;61429;52.086;5.240;2022-09-09T01:32:54;100603.0;;;17.0;80.02
50652;BME280;61429;52.086;5.240;2022-09-09T01:36:19;100602.0;;;16.84;80.23
50652;BME280;61429;52.086;5.240;2022-09-09T01:38:01;100606.0;;;16.86;80.41
50652;BME280;61429;52.086;5.240;2022-09-09T01:39:39;100608.0;;;16.84;80.75
50652;BME280;61429;52.086;5.240;2022-09-09T01:41:18;100609.0;;;16.77;80.64
50652;BME280;61429;52.086;5.240;2022-09-09T01:44:33;100611.0;;;16.77;80.95
50652;BME280;61429;52.086;5.240;2022-09-09T01:46:11;100610.0;;;16.77;80.74
50652;BME280;61429;52.086;5.240;2022-09-09T01:47:49;100603.0;;;16.78;80.86
50652;BME280;61429;52.086;5.240;2022-09-09T01:51:03;100606.0;;;16.7;80.87
50652;BME280;61429;52.086;5.240;2022-09-09T01:52:39;100603.0;;;16.7;80.77
50652;BME280;61429;52.086;5.240;2022-09-09T01:54:16;100595.0;;;16.68;80.92
50652;BME280;61429;52.086;5.240;2022-09-09T01:56:02;100593.0;;;16.7;80.83
50652;BME280;61429;52.086;5.240;2022-09-09T01:59:44;100592.0;;;16.77;80.55
50652;BME280;61429;52.086;5.240;2022-09-09T02:01:34;100598.0;;;16.65;80.91
50652;BME280;61429;52.086;5.240;2022-09-09T02:03:20;100586.0;;;16.71;80.64
50652;BME280;61429;52.086;5.240;2022-09-09T02:06:55;100584.0;;;16.77;80.31
50652;BME280;61429;52.086;5.240;2022-09-09T02:08:37;100580.0;;;16.66;80.27
50652;BME280;61429;52.086;5.240;2022-09-09T02:12:08;100582.0;;;16.63;80.5
50652;BME280;61429;52.086;5.240;2022-09-09T02:13:51;100578.0;;;16.61;80.48
50652;BME280;61429;52.086;5.240;2022-09-09T02:15:34;100569.0;;;16.57;80.56
50652;BME280;61429;52.086;5.240;2022-09-09T02:17:17;100570.0;;;16.54;80.56
50652;BME280;61429;52.086;5.240;2022-09-09T02:19:01;100575.0;;;16.48;80.72
50652;BME280;61429;52.086;5.240;2022-09-09T02:22:22;100569.0;;;16.54;80.61
50652;BME280;61429;52.086;5.240;2022-09-09T02:24:02;100578.0;;;16.54;80.69
50652;BME280;61429;52.086;5.240;2022-09-09T02:25:41;100583.0;;;16.46;80.92
50652;BME280;61429;52.086;5.240;2022-09-09T02:27:20;100582.0;;;16.41;81.24
50652;BME280;61429;52.086;5.240;2022-09-09T02:30:39;100583.0;;;16.5;81.34
50652;BME280;61429;52.086;5.240;2022-09-09T02:32:21;100580.0;;;16.48;81.0
50652;BME280;61429;52.086;5.240;2022-09-09T02:34:00;100572.0;;;16.62;80.69
50652;BME280;61429;52.086;5.240;2022-09-09T02:35:39;100575.0;;;16.59;80.69
50652;BME280;61429;52.086;5.240;2022-09-09T02:38:58;100584.0;;;16.54;80.47
50652;BME280;61429;52.086;5.240;2022-09-09T02:40:35;100582.0;;;16.52;80.61
50652;BME280;61429;52.086;5.240;2022-09-09T02:42:11;100578.0;;;16.53;80.69
50652;BME280;61429;52.086;5.240;2022-09-09T02:45:27;100576.0;;;16.54;80.66
50652;BME280;61429;52.086;5.240;2022-09-09T02:47:20;100571.0;;;16.54;80.48
50652;BME280;61429;52.086;5.240;2022-09-09T02:49:03;100573.0;;;16.54;80.36
50652;BME280;61429;52.086;5.240;2022-09-09T02:50:51;100573.0;;;16.52;80.34
50652;BME280;61429;52.086;5.240;2022-09-09T02:52:38;100572.0;;;16.47;80.62
50652;BME280;61429;52.086;5.240;2022-09-09T02:56:05;100571.0;;;16.46;80.41
50652;BME280;61429;52.086;5.240;2022-09-09T02:57:48;100567.0;;;16.41;80.56
50652;BME280;61429;52.086;5.240;2022-09-09T02:59:26;100565.0;;;16.5;80.22
50652;BME280;61429;52.086;5.240;2022-09-09T03:01:03;100562.0;;;16.54;80.13
50652;BME280;61429;52.086;5.240;2022-09-09T03:04:15;100560.0;;;16.53;80.37
50652;BME280;61429;52.086;5.240;2022-09-09T03:05:52;100565.0;;;16.5;80.55
50652;BME280;61429;52.086;5.240;2022-09-09T03:07:28;100564.0;;;16.59;80.24
50652;BME280;61429;52.086;5.240;2022-09-09T03:09:04;100565.0;;;16.59;80.19
50652;BME280;61429;52.086;5.240;2022-09-09T03:12:16;100565.0;;;16.65;79.91
50652;BME280;61429;52.086;5.240;2022-09-09T03:13:53;100569.0;;;16.7;79.53
50652;BME280;61429;52.086;5.240;2022-09-09T03:15:31;100565.0;;;16.75;79.31
50652;BME280;61429;52.086;5.240;2022-09-09T03:18:46;100563.0;;;16.63;79.61
50652;BME280;61429;52.086;5.240;2022-09-09T03:20:22;100559.0;;;16.66;79.77
50652;BME280;61429;52.086;5.240;2022-09-09T03:22:00;100556.0;;;16.66;79.52
50652;BME280;61429;52.086;5.240;2022-09-09T03:25:12;100563.0;;;16.66;79.59
50652;BME280;61429;52.086;5.240;2022-09-09T03:26:50;100560.0;;;16.61;79.52
50652;BME280;61429;52.086;5.240;2022-09-09T03:28:31;100559.0;;;16.56;79.95
50652;BME280;61429;52.086;5.240;2022-09-09T03:30:08;100558.0;;;16.48;79.75
50652;BME280;61429;52.086;5.240;2022-09-09T03:33:20;100558.0;;;16.48;79.64
50652;BME280;61429;52.086;5.240;2022-09-09T03:34:57;100557.0;;;16.34;80.0
50652;BME280;61429;52.086;5.240;2022-09-09T03:36:33;100555.0;;;16.48;80.02
50652;BME280;61429;52.086;5.240;2022-09-09T03:39:46;100557.0;;;16.29;80.36
50652;BME280;61429;52.086;5.240;2022-09-09T03:41:24;100564.0;;;16.27;80.66
50652;BME280;61429;52.086;5.240;2022-09-09T03:43:01;100559.0;;;16.2;80.56
50652;BME280;61429;52.086;5.240;2022-09-09T03:44:37;100556.0;;;16.25;80.63
50652;BME280;61429;52.086;5.240;2022-09-09T03:47:50;100552.0;;;16.31;80.62
50652;BME280;61429;52.086;5.240;2022-09-09T03:49:28;100559.0;;;16.31;80.78
50652;BME280;61429;52.086;5.240;2022-09-09T03:51:05;100559.0;;;16.38;80.12
50652;BME280;61429;52.086;5.240;2022-09-09T03:54:18;100557.0;;;16.23;80.44
50652;BME280;61429;52.086;5.240;2022-09-09T03:55:56;100557.0;;;16.11;80.94
50652;BME280;61429;52.086;5.240;2022-09-09T03:57:35;100555.0;;;16.13;80.92
50652;BME280;61429;52.086;5.240;2022-09-09T04:00:53;100556.0;;;16.21;80.72
50652;BME280;61429;52.086;5.240;2022-09-09T04:02:30;100551.0;;;16.18;80.94
50652;BME280;61429;52.086;5.240;2022-09-09T04:04:08;100555.0;;;16.18;81.24
50652;BME280;61429;52.086;5.240;2022-09-09T04:05:48;100559.0;;;16.12;81.28
50652;BME280;61429;52.086;5.240;2022-09-09T04:09:03;100553.0;;;16.25;80.69
50652;BME280;61429;52.086;5.240;2022-09-09T04:10:39;100555.0;;;16.12;80.81
50652;BME280;61429;52.086;5.240;2022-09-09T04:12:16;100551.0;;;16.2;80.74
50652;BME280;61429;52.086;5.240;2022-09-09T04:15:29;100548.0;;;16.15;80.98
50652;BME280;61429;52.086;5.240;2022-09-09T04:17:06;100544.0;;;16.11;81.61
50652;BME280;61429;52.086;5.240;2022-09-09T04:18:42;100546.0;;;16.28;80.7
50652;BME280;61429;52.086;5.240;2022-09-09T04:20:19;100548.0;;;16.29;80.8
50652;BME280;61429;52.086;5.240;2022-09-09T04:23:31;100546.0;;;16.34;80.84
50652;BME280;61429;52.086;5.240;2022-09-09T04:26:45;100544.0;;;16.34;80.99
50652;BME280;61429;52.086;5.240;2022-09-09T04:30:01;100538.0;;;16.5;80.38
50652;BME280;61429;52.086;5.240;2022-09-09T04:31:41;100538.0;;;16.48;80.67
50652;BME280;61429;52.086;5.240;2022-09-09T04:33:18;100537.0;;;16.61;79.87
50652;BME280;61429;52.086;5.240;2022-09-09T04:34:54;100534.0;;;16.65;79.61
50652;BME280;61429;52.086;5.240;2022-09-09T04:38:09;100531.0;;;16.57;79.69
50652;BME280;61429;52.086;5.240;2022-09-09T04:39:45;100530.0;;;16.59;79.61
50652;BME280;61429;52.086;5.240;2022-09-09T04:41:21;100530.0;;;16.56;79.63
50652;BME280;61429;52.086;5.240;2022-09-09T04:44:35;100530.0;;;16.5;80.0
50652;BME280;61429;52.086;5.240;2022-09-09T04:46:11;100522.0;;;16.5;79.78
50652;BME280;61429;52.086;5.240;2022-09-09T04:47:47;100520.0;;;16.52;79.94
50652;BME280;61429;52.086;5.240;2022-09-09T04:51:01;100520.0;;;16.5;79.86
50652;BME280;61429;52.086;5.240;2022-09-09T04:52:37;100526.0;;;16.5;79.8
50652;BME280;61429;52.086;5.240;2022-09-09T04:54:14;100525.0;;;16.48;79.62
50652;BME280;61429;52.086;5.240;2022-09-09T04:55:50;100526.0;;;16.5;79.69
50652;BME280;61429;52.086;5.240;2022-09-09T04:59:03;100523.0;;;16.45;79.99
50652;BME280;61429;52.086;5.240;2022-09-09T05:00:38;100525.0;;;16.45;79.86
50652;BME280;61429;52.086;5.240;2022-09-09T05:02:14;100523.0;;;16.34;80.3
50652;BME280;61429;52.086;5.240;2022-09-09T05:05:28;100530.0;;;16.4;80.08
50652;BME280;61429;52.086;5.240;2022-09-09T05:07:04;100530.0;;;16.45;80.22
50652;BME280;61429;52.086;5.240;2022-09-09T05:08:41;100530.0;;;16.45;80.23
50652;BME280;61429;52.086;5.240;2022-09-09T05:11:57;100521.0;;;16.46;80.16
50652;BME280;61429;52.086;5.240;2022-09-09T05:13:34;100525.0;;;16.41;80.33
50652;BME280;61429;52.086;5.240;2022-09-09T05:15:10;100520.0;;;16.43;80.25
50652;BME280;61429;52.086;5.240;2022-09-09T05:16:47;100518.0;;;16.36;80.55
50652;BME280;61429;52.086;5.240;2022-09-09T05:20:00;100516.0;;;16.32;80.69
50652;BME280;61429;52.086;5.240;2022-09-09T05:21:36;100513.0;;;16.27;81.41
50652;BME280;61429;52.086;5.240;2022-09-09T05:23:13;100513.0;;;16.39;80.74
50652;BME280;61429;52.086;5.240;2022-09-09T05:26:26;100515.0;;;16.36;81.11
50652;BME280;61429;52.086;5.240;2022-09-09T05:28:02;100517.0;;;16.41;80.58
50652;BME280;61429;52.086;5.240;2022-09-09T05:29:39;100520.0;;;16.25;81.19
50652;BME280;61429;52.086;5.240;2022-09-09T05:32:55;100521.0;;;16.25;81.44
50652;BME280;61429;52.086;5.240;2022-09-09T05:34:32;100521.0;;;16.21;81.66
50652;BME280;61429;52.086;5.240;2022-09-09T05:36:10;100521.0;;;16.18;81.74
50652;BME280;61429;52.086;5.240;2022-09-09T05:37:47;100518.0;;;16.11;81.87
50652;BME280;61429;52.086;5.240;2022-09-09T05:41:00;100505.0;;;16.2;82.02
50652;BME280;61429;52.086;5.240;2022-09-09T05:42:37;100508.0;;;16.39;81.45
50652;BME280;61429;52.086;5.240;2022-09-09T05:44:13;100506.0;;;16.36;81.58
50652;BME280;61429;52.086;5.240;2022-09-09T05:47:36;100505.0;;;16.39;81.47
50652;BME280;61429;52.086;5.240;2022-09-09T05:49:12;100510.0;;;16.52;81.09
50652;BME280;61429;52.086;5.240;2022-09-09T05:50:52;100512.0;;;16.63;80.48
50652;BME280;61429;52.086;5.240;2022-09-09T05:52:29;100519.0;;;16.53;80.69
50652;BME280;61429;52.086;5.240;2022-09-09T05:55:42;100519.0;;;16.32;81.66
50652;BME280;61429;52.086;5.240;2022-09-09T05:57:19;100526.0;;;16.52;81.42
50652;BME280;61429;52.086;5.240;2022-09-09T05:58:55;100527.0;;;16.52;81.19
50652;BME280;61429;52.086;5.240;2022-09-09T06:02:09;100532.0;;;16.55;81.38
50652;BME280;61429;52.086;5.240;2022-09-09T06:03:46;100530.0;;;16.37;81.93
50652;BME280;61429;52.086;5.240;2022-09-09T06:05:23;100532.0;;;16.48;81.47
50652;BME280;61429;52.086;5.240;2022-09-09T06:07:01;100527.0;;;16.38;82.26
50652;BME280;61429;52.086;5.240;2022-09-09T06:10:16;100532.0;;;16.55;81.83
50652;BME280;61429;52.086;5.240;2022-09-09T06:11:54;100527.0;;;16.68;81.5
50652;BME280;61429;52.086;5.240;2022-09-09T06:13:30;100525.0;;;16.7;81.28
50652;BME280;61429;52.086;5.240;2022-09-09T06:16:46;100524.0;;;16.65;81.7
50652;BME280;61429;52.086;5.240;2022-09-09T06:18:22;100525.0;;;16.61;81.69
50652;BME280;61429;52.086;5.240;2022-09-09T06:19:59;100522.0;;;16.75;81.44
50652;BME280;61429;52.086;5.240;2022-09-09T06:21:36;100523.0;;;16.75;81.33
50652;BME280;61429;52.086;5.240;2022-09-09T06:24:49;100518.0;;;16.72;81.52
50652;BME280;61429;52.086;5.240;2022-09-09T06:26:27;100521.0;;;16.81;81.53
50652;BME280;61429;52.086;5.240;2022-09-09T06:28:03;100522.0;;;16.9;81.5
50652;BME280;61429;52.086;5.240;2022-09-09T06:31:19;100520.0;;;16.81;81.87
50652;BME280;61429;52.086;5.240;2022-09-09T06:32:56;100521.0;;;17.05;81.36
50652;BME280;61429;52.086;5.240;2022-09-09T06:34:32;100516.0;;;17.12;81.27
50652;BME280;61429;52.086;5.240;2022-09-09T06:37:48;100517.0;;;17.25;81.09
50652;BME280;61429;52.086;5.240;2022-09-09T06:39:25;100515.0;;;17.27;80.95
50652;BME280;61429;52.086;5.240;2022-09-09T06:41:02;100512.0;;;17.27;81.28
50652;BME280;61429;52.086;5.240;2022-09-09T06:42:39;100511.0;;;17.46;80.19
50652;BME280;61429;52.086;5.240;2022-09-09T06:45:53;100511.0;;;17.61;79.95
50652;BME280;61429;52.086;5.240;2022-09-09T06:47:30;100510.0;;;17.66;79.34
50652;BME280;61429;52.086;5.240;2022-09-09T06:49:07;100505.0;;;17.63;79.22
50652;BME280;61429;52.086;5.240;2022-09-09T06:52:20;100509.0;;;17.7;79.36
50652;BME280;61429;52.086;5.240;2022-09-09T06:53:57;100506.0;;;17.77;79.05
50652;BME280;61429;52.086;5.240;2022-09-09T06:55:35;100508.0;;;17.8;79.27
50652;BME280;61429;52.086;5.240;2022-09-09T06:57:11;100505.0;;;17.91;78.55
50652;BME280;61429;52.086;5.240;2022-09-09T07:00:26;100508.0;;;18.02;78.44
50652;BME280;61429;52.086;5.240;2022-09-09T07:02:03;100510.0;;;18.07;77.8
50652;BME280;61429;52.086;5.240;2022-09-09T07:03:39;100510.0;;;18.16;77.3
50652;BME280;61429;52.086;5.240;2022-09-09T07:06:53;100512.0;;;18.13;77.62
50652;BME280;61429;52.086;5.240;2022-09-09T07:08:28;100507.0;;;18.02;78.22
50652;BME280;61429;52.086;5.240;2022-09-09T07:10:05;100505.0;;;18.12;77.69
50652;BME280;61429;52.086;5.240;2022-09-09T07:13:23;100501.0;;;18.12;77.3
50652;BME280;61429;52.086;5.240;2022-09-09T07:15:01;100505.0;;;18.25;77.19
50652;BME280;61429;52.086;5.240;2022-09-09T07:16:37;100498.0;;;18.41;76.95
50652;BME280;61429;52.086;5.240;2022-09-09T07:18:13;100493.0;;;18.36;76.22
50652;BME280;61429;52.086;5.240;2022-09-09T07:21:27;100493.0;;;18.52;75.95
50652;BME280;61429;52.086;5.240;2022-09-09T07:23:04;100499.0;;;18.66;75.61
50652;BME280;61429;52.086;5.240;2022-09-09T07:24:41;100496.0;;;18.56;74.86
50652;BME280;61429;52.086;5.240;2022-09-09T07:27:57;100503.0;;;18.45;75.02
50652;BME280;61429;52.086;5.240;2022-09-09T07:29:33;100502.0;;;18.55;75.14
50652;BME280;61429;52.086;5.240;2022-09-09T07:31:13;100503.0;;;18.68;74.88
50652;BME280;61429;52.086;5.240;2022-09-09T07:32:51;100505.0;;;18.8;74.13
50652;BME280;61429;52.086;5.240;2022-09-09T07:36:06;100506.0;;;18.93;74.3
50652;BME280;61429;52.086;5.240;2022-09-09T07:37:44;100498.0;;;18.86;74.69
50652;BME280;61429;52.086;5.240;2022-09-09T07:39:20;100510.0;;;18.81;74.36
50652;BME280;61429;52.086;5.240;2022-09-09T07:42:39;100510.0;;;18.97;74.02
50652;BME280;61429;52.086;5.240;2022-09-09T07:44:18;100517.0;;;19.03;73.92
50652;BME280;61429;52.086;5.240;2022-09-09T07:45:57;100518.0;;;18.98;74.27
50652;BME280;61429;52.086;5.240;2022-09-09T07:47:34;100513.0;;;19.03;73.97
50652;BME280;61429;52.086;5.240;2022-09-09T07:50:47;100523.0;;;18.96;72.87
50652;BME280;61429;52.086;5.240;2022-09-09T07:52:23;100518.0;;;19.05;73.11
50652;BME280;61429;52.086;5.240;2022-09-09T07:54:01;100520.0;;;19.0;73.25
50652;BME280;61429;52.086;5.240;2022-09-09T07:57:16;100521.0;;;19.05;73.59
50652;BME280;61429;52.086;5.240;2022-09-09T07:58:54;100526.0;;;19.11;72.94
50652;BME280;61429;52.086;5.240;2022-09-09T08:00:30;100520.0;;;19.22;72.83
50652;BME280;61429;52.086;5.240;2022-09-09T08:02:06;100519.0;;;19.12;73.02
50652;BME280;61429;52.086;5.240;2022-09-09T08:05:28;100525.0;;;19.06;72.77
50652;BME280;61429;52.086;5.240;2022-09-09T08:07:04;100520.0;;;19.0;72.58
50652;BME280;61429;52.086;5.240;2022-09-09T08:08:42;100515.0;;;19.02;72.89
50652;BME280;61429;52.086;5.240;2022-09-09T08:10:18;100519.0;;;19.02;72.58
50652;BME280;61429;52.086;5.240;2022-09-09T08:13:34;100522.0;;;18.93;72.55
50652;BME280;61429;52.086;5.240;2022-09-09T08:15:11;100520.0;;;18.77;72.61
50652;BME280;61429;52.086;5.240;2022-09-09T08:16:48;100516.0;;;18.72;72.98
50652;BME280;61429;52.086;5.240;2022-09-09T08:20:06;100517.0;;;18.84;72.47
50652;BME280;61429;52.086;5.240;2022-09-09T08:21:43;100523.0;;;18.7;73.17
50652;BME280;61429;52.086;5.240;2022-09-09T08:23:21;100530.0;;;18.75;73.36
50652;BME280;61429;52.086;5.240;2022-09-09T08:24:58;100523.0;;;18.68;73.39
50652;BME280;61429;52.086;5.240;2022-09-09T08:28:12;100531.0;;;18.77;72.97
50652;BME280;61429;52.086;5.240;2022-09-09T08:29:49;100528.0;;;18.75;72.37
50652;BME280;61429;52.086;5.240;2022-09-09T08:31:28;100532.0;;;18.84;72.24
50652;BME280;61429;52.086;5.240;2022-09-09T08:34:41;100530.0;;;18.8;72.64
50652;BME280;61429;52.086;5.240;2022-09-09T08:36:20;100530.0;;;19.0;72.27
50652;BME280;61429;52.086;5.240;2022-09-09T08:37:58;100532.0;;;19.11;71.94
50652;BME280;61429;52.086;5.240;2022-09-09T08:41:29;100528.0;;;19.02;71.86
50652;BME280;61429;52.086;5.240;2022-09-09T08:43:43;100528.0;;;19.18;71.44
50652;BME280;61429;52.086;5.240;2022-09-09T08:45:29;100528.0;;;19.23;71.55
50652;BME280;61429;52.086;5.240;2022-09-09T08:47:13;100535.0;;;19.25;71.09
50652;BME280;61429;52.086;5.240;2022-09-09T08:49:02;100539.0;;;19.3;70.92
50652;BME280;61429;52.086;5.240;2022-09-09T08:50:44;100539.0;;;19.34;70.52
50652;BME280;61429;52.086;5.240;2022-09-09T08:52:23;100539.0;;;19.22;71.33
50652;BME280;61429;52.086;5.240;2022-09-09T08:55:45;100540.0;;;19.2;71.45
50652;BME280;61429;52.086;5.240;2022-09-09T08:57:23;100537.0;;;19.34;70.58
50652;BME280;61429;52.086;5.240;2022-09-09T08:59:04;100539.0;;;19.27;70.58
50652;BME280;61429;52.086;5.240;2022-09-09T09:00:49;100539.0;;;19.34;70.59
50652;BME280;61429;52.086;5.240;2022-09-09T09:02:53;100543.0;;;19.13;70.62
50652;BME280;61429;52.086;5.240;2022-09-09T09:06:40;100544.0;;;19.14;70.94
50652;BME280;61429;52.086;5.240;2022-09-09T09:08:25;100541.0;;;19.2;70.86
50652;BME280;61429;52.086;5.240;2022-09-09T09:10:15;100545.0;;;19.27;70.66
50652;BME280;61429;52.086;5.240;2022-09-09T09:12:06;100545.0;;;19.27;70.72
50652;BME280;61429;52.086;5.240;2022-09-09T09:13:48;100549.0;;;19.34;70.36
50652;BME280;61429;52.086;5.240;2022-09-09T09:15:31;100541.0;;;19.45;70.14
50652;BME280;61429;52.086;5.240;2022-09-09T09:18:55;100546.0;;;19.48;70.05
50652;BME280;61429;52.086;5.240;2022-09-09T09:20:39;100548.0;;;19.47;69.75
50652;BME280;61429;52.086;5.240;2022-09-09T09:22:21;100548.0;;;19.5;69.89
50652;BME280;61429;52.086;5.240;2022-09-09T09:24:00;100547.0;;;19.54;69.73
50652;BME280;61429;52.086;5.240;2022-09-09T09:25:39;100549.0;;;19.53;69.94
50652;BME280;61429;52.086;5.240;2022-09-09T09:29:12;100548.0;;;19.52;70.11
50652;BME280;61429;52.086;5.240;2022-09-09T09:30:51;100549.0;;;19.41;70.11
50652;BME280;61429;52.086;5.240;2022-09-09T09:32:33;100549.0;;;19.36;70.34
50652;BME280;61429;52.086;5.240;2022-09-09T09:34:11;100549.0;;;19.52;70.08
50652;BME280;61429;52.086;5.240;2022-09-09T09:37:29;100550.0;;;19.52;70.36
50652;BME280;61429;52.086;5.240;2022-09-09T09:39:06;100553.0;;;19.5;70.09
50652;BME280;61429;52.086;5.240;2022-09-09T09:40:51;100561.0;;;19.64;69.91
50652;BME280;61429;52.086;5.240;2022-09-09T09:42:30;100567.0;;;19.63;70.47
50652;BME280;61429;52.086;5.240;2022-09-09T09:46:00;100564.0;;;19.5;71.94
50652;BME280;61429;52.086;5.240;2022-09-09T09:47:41;100562.0;;;19.32;73.47
50652;BME280;61429;52.086;5.240;2022-09-09T09:49:17;100564.0;;;19.25;73.55
50652;BME280;61429;52.086;5.240;2022-09-09T09:50:56;100562.0;;;19.11;74.25
50652;BME280;61429;52.086;5.240;2022-09-09T09:54:18;100557.0;;;19.0;75.19
50652;BME280;61429;52.086;5.240;2022-09-09T09:56:01;100555.0;;;19.12;74.94
50652;BME280;61429;52.086;5.240;2022-09-09T09:57:39;100552.0;;;19.11;75.02
50652;BME280;61429;52.086;5.240;2022-09-09T09:59:32;100553.0;;;19.11;75.33
50652;BME280;61429;52.086;5.240;2022-09-09T10:02:59;100550.0;;;19.18;74.77
50652;BME280;61429;52.086;5.240;2022-09-09T10:04:36;100550.0;;;19.25;74.66
50652;BME280;61429;52.086;5.240;2022-09-09T10:06:12;100553.0;;;19.11;74.97
50652;BME280;61429;52.086;5.240;2022-09-09T10:08:00;100549.0;;;19.07;75.02
50652;BME280;61429;52.086;5.240;2022-09-09T10:09:37;100548.0;;;19.14;74.8
50652;BME280;61429;52.086;5.240;2022-09-09T10:13:11;100547.0;;;19.27;73.67
50652;BME280;61429;52.086;5.240;2022-09-09T10:14:59;100545.0;;;19.27;73.77
50652;BME280;61429;52.086;5.240;2022-09-09T10:16:49;100551.0;;;19.16;73.83
50652;BME280;61429;52.086;5.240;2022-09-09T10:18:41;100553.0;;;19.2;73.91
50652;BME280;61429;52.086;5.240;2022-09-09T10:20:32;100564.0;;;19.09;74.0
50652;BME280;61429;52.086;5.240;2022-09-09T10:22:22;100561.0;;;18.93;74.62
50652;BME280;61429;52.086;5.240;2022-09-09T10:26:24;100556.0;;;18.84;76.16
50652;BME280;61429;52.086;5.240;2022-09-09T10:28:23;100562.0;;;19.0;76.02
50652;BME280;61429;52.086;5.240;2022-09-09T10:31:04;100563.0;;;19.11;75.81
50652;BME280;61429;52.086;5.240;2022-09-09T10:32:57;100564.0;;;18.97;76.25
50652;BME280;61429;52.086;5.240;2022-09-09T10:34:54;100564.0;;;19.13;76.61
50652;BME280;61429;52.086;5.240;2022-09-09T10:38:16;100560.0;;;19.14;76.84
50652;BME280;61429;52.086;5.240;2022-09-09T10:40:02;100560.0;;;19.34;76.17
50652;BME280;61429;52.086;5.240;2022-09-09T10:41:58;100561.0;;;19.37;76.27
50652;BME280;61429;52.086;5.240;2022-09-09T10:43:52;100555.0;;;19.13;76.45
50652;BME280;61429;52.086;5.240;2022-09-09T10:45:41;100552.0;;;19.38;76.0
50652;BME280;61429;52.086;5.240;2022-09-09T10:47:37;100550.0;;;19.48;75.74
50652;BME280;61429;52.086;5.240;2022-09-09T10:49:33;100548.0;;;19.48;75.75
50652;BME280;61429;52.086;5.240;2022-09-09T10:53:13;100550.0;;;19.66;75.44
50652;BME280;61429;52.086;5.240;2022-09-09T10:54:56;100550.0;;;19.68;74.61
50652;BME280;61429;52.086;5.240;2022-09-09T10:56:37;100545.0;;;19.71;75.47
50652;BME280;61429;52.086;5.240;2022-09-09T10:58:17;100549.0;;;19.75;74.2
50652;BME280;61429;52.086;5.240;2022-09-09T11:00:03;100538.0;;;19.68;73.8
50652;BME280;61429;52.086;5.240;2022-09-09T11:03:26;100539.0;;;19.72;74.05
50652;BME280;61429;52.086;5.240;2022-09-09T11:05:06;100545.0;;;19.89;73.97
50652;BME280;61429;52.086;5.240;2022-09-09T11:06:54;100542.0;;;19.86;73.59
50652;BME280;61429;52.086;5.240;2022-09-09T11:08:34;100549.0;;;19.93;73.52
50652;BME280;61429;52.086;5.240;2022-09-09T11:10:21;100544.0;;;19.95;74.06